Terminal Aerodrome Forecast
Issued by NWS Cleveland, OH

Home | Current Version | Previous Version | Text Only | Print | Product List | Glossary Off
Versions: 1 2 3 4 5 6 7 8 9 10 11 12 13 14 15 16 17 18

000
FTUS41 KCLE 271429 AAA
TAFERI
TAF AMD
KERI 271429Z 2714/2812 19014G22KT P6SM FEW100 BKN250
     FM271700 20015G25KT P6SM SCT050 OVC100
      TEMPO 2721/2724 5SM -TSRA BKN035CB OVC050
     FM280000 22012G20KT P6SM BKN040=

USA.gov is the U.S. government's official web portal to all federal, state and local government web resources and services.